Time;durP1;ratioP1;P1;durP2;ratioP2;P2;SDS_P1;SDS_P2;PMS_P1;PMS_P2;Temp;Humidity;BMP_temperature;BMP_pressure;BME280_temperature;BME280_humidity;BME280_pressure;Samples;Min_cycle;Max_cycle;Signal;HPM_P1;HPM_P2
2022/01/06 00:00:01;;;;;;;;;;;4.30;99.90;;;;;;5047299;28;20436;-67
2022/01/06 00:02:26;;;;;;;;;;;4.40;99.90;;;;;;5047538;28;20302;-69
2022/01/06 00:04:52;;;;;;;;;;;4.40;99.90;;;;;;5033787;28;19917;-73
2022/01/06 00:07:17;;;;;;;;;;;4.40;99.90;;;;;;5038896;28;19912;-70
2022/01/06 00:09:43;;;;;;;;;;;4.50;99.90;;;;;;5046833;28;20144;-72
2022/01/06 00:12:12;;;;;;;;;;;4.40;99.90;;;;;;5047406;28;19909;-69
2022/01/06 00:14:57;;;;;;;;;;;4.40;99.90;;;;;;5047347;28;19913;-69
2022/01/06 00:17:42;;;;;;;;;;;4.30;99.90;;;;;;5046866;28;19912;-72
2022/01/06 00:23:24;;;;;;;;;;;4.20;99.90;;;;;;5020619;28;19967;-69
2022/01/06 00:25:51;;;;;;;;;;;4.10;99.90;;;;;;5026972;28;19909;-68
2022/01/06 00:28:16;;;;;;;;;;;4.10;99.90;;;;;;5045355;28;20380;-70
2022/01/06 00:30:42;;;;;;;;;;;4.20;99.90;;;;;;5046744;28;19917;-70
2022/01/06 00:33:07;;;;;;;;;;;4.10;99.90;;;;;;5024716;28;19974;-71
2022/01/06 00:35:33;;;;;;;;;;;4.20;99.90;;;;;;5026618;28;20329;-73
2022/01/06 00:37:58;;;;;;;;;;;4.20;99.90;;;;;;5026343;28;20012;-69
2022/01/06 00:40:24;;;;;;;;;;;4.20;99.90;;;;;;5026202;28;19976;-72
2022/01/06 00:42:50;;;;;;;;;;;4.20;99.90;;;;;;5008997;28;19909;-71
2022/01/06 00:45:15;;;;;;;;;;;4.30;99.90;;;;;;5026226;28;20000;-69
2022/01/06 00:47:41;;;;;;;;;;;4.40;99.90;;;;;;5034652;28;19917;-70
2022/01/06 00:50:06;;;;;;;;;;;4.40;99.90;;;;;;5044474;28;19940;-71
2022/01/06 00:52:33;;;;;;;;;;;4.50;99.90;;;;;;5042630;28;19920;-70
2022/01/06 00:54:58;;;;;;;;;;;4.50;99.90;;;;;;5046124;28;20362;-70
2022/01/06 00:57:24;;;;;;;;;;;4.60;99.90;;;;;;5032813;28;20008;-70
2022/01/06 00:59:49;;;;;;;;;;;4.60;99.90;;;;;;5025759;28;19910;-73
2022/01/06 01:02:15;;;;;;;;;;;4.50;99.90;;;;;;5026223;28;19958;-70
2022/01/06 01:04:40;;;;;;;;;;;4.50;99.90;;;;;;5026043;28;20007;-69
2022/01/06 01:07:06;;;;;;;;;;;4.50;99.90;;;;;;5008567;28;20055;-72
2022/01/06 01:09:31;;;;;;;;;;;4.40;99.90;;;;;;5025418;28;19909;-71
2022/01/06 01:12:02;;;;;;;;;;;4.30;99.90;;;;;;5025540;28;20015;-67
2022/01/06 01:14:31;;;;;;;;;;;4.30;99.90;;;;;;5026124;28;20030;-69
2022/01/06 01:16:59;;;;;;;;;;;4.20;99.90;;;;;;5033855;28;20396;-70
2022/01/06 01:19:25;;;;;;;;;;;4.20;99.90;;;;;;5046125;28;19920;-68
2022/01/06 01:21:50;;;;;;;;;;;4.20;99.90;;;;;;5049520;28;19985;-68
2022/01/06 01:24:16;;;;;;;;;;;4.10;99.90;;;;;;5037305;28;19912;-69
2022/01/06 01:26:42;;;;;;;;;;;4.00;99.90;;;;;;5052439;28;19913;-72
2022/01/06 01:29:16;;;;;;;;;;;4.00;99.90;;;;;;5050097;28;19928;-68
2022/01/06 01:31:46;;;;;;;;;;;4.00;99.90;;;;;;5026714;28;20016;-70
2022/01/06 01:34:12;;;;;;;;;;;4.00;99.90;;;;;;5027717;28;19913;-69
2022/01/06 01:36:38;;;;;;;;;;;4.00;99.90;;;;;;5027541;28;19975;-70
2022/01/06 01:39:04;;;;;;;;;;;4.00;99.90;;;;;;5026253;28;19917;-69
2022/01/06 01:41:30;;;;;;;;;;;4.00;99.90;;;;;;5025538;28;19948;-70
2022/01/06 01:43:55;;;;;;;;;;;4.00;99.90;;;;;;5038460;28;19927;-71
2022/01/06 01:46:28;;;;;;;;;;;4.00;99.90;;;;;;5047029;28;19956;-70
2022/01/06 01:51:38;;;;;;;;;;;3.90;99.90;;;;;;5031381;28;19971;-70
2022/01/06 01:54:03;;;;;;;;;;;3.90;99.90;;;;;;5045147;28;19944;-69
2022/01/06 01:56:29;;;;;;;;;;;3.90;99.90;;;;;;5045709;28;19932;-69
2022/01/06 01:58:55;;;;;;;;;;;3.90;99.90;;;;;;5046857;28;19909;-69
2022/01/06 02:01:21;;;;;;;;;;;3.90;99.90;;;;;;5050894;28;19943;-69
2022/01/06 02:03:46;;;;;;;;;;;3.90;99.90;;;;;;5051899;28;19986;-69
2022/01/06 02:06:12;;;;;;;;;;;3.90;99.90;;;;;;5036682;28;19910;-68
2022/01/06 02:08:37;;;;;;;;;;;3.90;99.90;;;;;;5029343;28;19978;-71
2022/01/06 02:11:03;;;;;;;;;;;4.00;99.90;;;;;;5040906;28;19913;-69
2022/01/06 02:13:29;;;;;;;;;;;4.00;99.90;;;;;;5051333;28;19963;-69
2022/01/06 02:15:56;;;;;;;;;;;4.00;99.90;;;;;;5031969;28;20377;-68
2022/01/06 02:18:21;;;;;;;;;;;4.10;99.90;;;;;;5036674;28;19940;-69
2022/01/06 02:20:47;;;;;;;;;;;4.00;99.90;;;;;;5030393;28;20360;-68
2022/01/06 02:23:12;;;;;;;;;;;3.90;99.90;;;;;;5031312;28;19960;-68
2022/01/06 02:25:38;;;;;;;;;;;3.90;99.90;;;;;;5031190;28;19992;-70
2022/01/06 02:28:04;;;;;;;;;;;3.90;99.90;;;;;;5030350;28;19916;-67
2022/01/06 02:30:32;;;;;;;;;;;3.90;99.90;;;;;;5025811;28;19982;-68
2022/01/06 02:33:00;;;;;;;;;;;3.90;99.90;;;;;;5039096;28;19945;-67
2022/01/06 02:35:26;;;;;;;;;;;3.90;99.90;;;;;;5028624;28;20024;-71
2022/01/06 02:37:51;;;;;;;;;;;3.90;99.90;;;;;;5028906;28;19920;-70
2022/01/06 02:40:18;;;;;;;;;;;4.00;99.90;;;;;;5028619;28;19913;-70
2022/01/06 02:42:49;;;;;;;;;;;3.90;99.90;;;;;;5046032;28;20552;-66
2022/01/06 02:45:15;;;;;;;;;;;4.00;99.90;;;;;;5047085;28;19913;-69
2022/01/06 02:47:41;;;;;;;;;;;3.90;99.90;;;;;;5048263;28;19909;-69
2022/01/06 02:50:08;;;;;;;;;;;3.80;99.90;;;;;;5047471;28;19916;-67
2022/01/06 02:52:33;;;;;;;;;;;3.70;99.90;;;;;;5031773;28;19917;-67
2022/01/06 02:54:59;;;;;;;;;;;3.60;99.90;;;;;;5028085;28;19909;-69
2022/01/06 02:57:24;;;;;;;;;;;3.50;99.90;;;;;;5028219;28;20516;-68
2022/01/06 02:59:50;;;;;;;;;;;3.50;99.90;;;;;;5027371;28;19913;-66
2022/01/06 03:02:15;;;;;;;;;;;3.50;99.90;;;;;;5028970;28;19913;-69
2022/01/06 03:04:41;;;;;;;;;;;3.50;99.90;;;;;;5026676;28;19998;-68
2022/01/06 03:07:08;;;;;;;;;;;3.50;99.90;;;;;;5028888;28;19927;-69
2022/01/06 03:09:42;;;;;;;;;;;3.40;99.90;;;;;;5027665;28;19909;-68
2022/01/06 03:12:20;;;;;;;;;;;3.30;99.90;;;;;;5029121;28;20011;-68
2022/01/06 03:14:45;;;;;;;;;;;3.30;99.90;;;;;;5030297;28;20087;-69
2022/01/06 03:17:11;;;;;;;;;;;3.30;99.90;;;;;;5029855;28;19988;-70
2022/01/06 03:19:36;;;;;;;;;;;3.20;99.90;;;;;;5027438;28;19909;-68
2022/01/06 03:22:02;;;;;;;;;;;3.30;99.90;;;;;;5029909;28;20015;-68
2022/01/06 03:24:28;;;;;;;;;;;3.40;99.90;;;;;;5028187;28;19925;-69
2022/01/06 03:26:53;;;;;;;;;;;3.50;99.90;;;;;;5029523;28;19932;-68
2022/01/06 03:29:19;;;;;;;;;;;3.60;99.90;;;;;;5027881;28;19917;-70
2022/01/06 03:31:45;;;;;;;;;;;3.70;99.90;;;;;;5037221;28;19913;-68
2022/01/06 03:34:11;;;;;;;;;;;3.90;99.90;;;;;;5031264;28;20325;-70
2022/01/06 03:36:36;;;;;;;;;;;4.00;99.90;;;;;;5030461;28;19963;-71
2022/01/06 03:39:02;;;;;;;;;;;4.00;99.90;;;;;;5026839;28;20016;-68
2022/01/06 03:41:28;;;;;;;;;;;4.00;99.90;;;;;;5026102;28;20519;-69
2022/01/06 03:43:53;;;;;;;;;;;4.00;99.90;;;;;;5035809;28;19920;-72
2022/01/06 03:46:19;;;;;;;;;;;4.00;99.90;;;;;;5048252;28;20520;-70
2022/01/06 03:48:44;;;;;;;;;;;4.00;99.90;;;;;;5046569;28;19908;-69
2022/01/06 03:51:10;;;;;;;;;;;4.00;99.90;;;;;;5034221;28;19955;-69
2022/01/06 03:53:35;;;;;;;;;;;4.00;99.90;;;;;;5026349;28;20282;-70
2022/01/06 03:56:01;;;;;;;;;;;3.90;99.90;;;;;;5026732;28;19952;-68
2022/01/06 03:58:26;;;;;;;;;;;3.90;99.90;;;;;;5032509;28;19913;-73
2022/01/06 04:00:52;;;;;;;;;;;3.90;99.90;;;;;;5028728;28;20378;-68
2022/01/06 04:03:17;;;;;;;;;;;3.90;99.90;;;;;;5029679;28;20036;-68
2022/01/06 04:05:43;;;;;;;;;;;3.90;99.90;;;;;;5048269;28;19909;-68
2022/01/06 04:08:08;;;;;;;;;;;3.90;99.90;;;;;;5037123;28;19909;-69
2022/01/06 04:10:34;;;;;;;;;;;3.80;99.90;;;;;;5028435;28;20468;-69
2022/01/06 04:12:59;;;;;;;;;;;3.70;99.90;;;;;;5029486;28;19952;-69
2022/01/06 04:15:26;;;;;;;;;;;3.70;99.90;;;;;;5044584;28;19931;-68
2022/01/06 04:17:52;;;;;;;;;;;3.70;99.90;;;;;;5035281;28;19959;-68
2022/01/06 04:20:17;;;;;;;;;;;3.60;99.90;;;;;;5031951;28;19913;-67
2022/01/06 04:22:43;;;;;;;;;;;3.50;99.90;;;;;;5048582;28;20284;-68
2022/01/06 04:25:08;;;;;;;;;;;3.50;99.90;;;;;;5048685;28;20412;-68
2022/01/06 04:27:34;;;;;;;;;;;3.40;99.90;;;;;;5031087;28;19951;-68
2022/01/06 04:30:00;;;;;;;;;;;3.10;99.90;;;;;;5029284;28;19928;-69
2022/01/06 04:32:25;;;;;;;;;;;2.90;99.90;;;;;;5051365;28;19920;-71
2022/01/06 04:34:50;;;;;;;;;;;3.20;99.90;;;;;;5033538;28;19920;-69
2022/01/06 04:37:16;;;;;;;;;;;3.70;99.90;;;;;;5027032;28;20007;-69
2022/01/06 04:39:41;;;;;;;;;;;4.00;99.90;;;;;;5008216;28;19909;-67
2022/01/06 04:42:07;;;;;;;;;;;4.20;99.90;;;;;;5027566;28;20400;-72
2022/01/06 04:44:32;;;;;;;;;;;4.20;99.90;;;;;;5026057;28;20033;-73
2022/01/06 04:46:58;;;;;;;;;;;4.20;99.90;;;;;;5025515;28;19917;-72
2022/01/06 04:49:23;;;;;;;;;;;4.20;99.90;;;;;;5025760;28;20031;-69
2022/01/06 04:51:49;;;;;;;;;;;4.30;99.90;;;;;;5035472;28;19913;-73
2022/01/06 04:54:15;;;;;;;;;;;4.40;99.90;;;;;;5046981;28;19948;-69
2022/01/06 04:56:40;;;;;;;;;;;4.50;99.90;;;;;;5046171;28;20101;-71
2022/01/06 04:59:10;;;;;;;;;;;4.50;99.90;;;;;;5008580;28;20414;-68
2022/01/06 05:01:36;;;;;;;;;;;4.50;99.90;;;;;;5017553;28;19925;-70
2022/01/06 05:04:02;;;;;;;;;;;4.40;99.90;;;;;;5014054;28;20390;-72
2022/01/06 05:06:27;;;;;;;;;;;4.50;99.90;;;;;;5043130;28;20210;-69
2022/01/06 05:08:53;;;;;;;;;;;4.50;99.90;;;;;;5046060;28;20235;-70
2022/01/06 05:11:19;;;;;;;;;;;4.60;99.90;;;;;;5044331;28;20303;-69
2022/01/06 05:13:45;;;;;;;;;;;4.60;99.90;;;;;;5045337;28;20015;-68
2022/01/06 05:16:10;;;;;;;;;;;4.60;99.90;;;;;;5028358;28;19915;-70
2022/01/06 05:18:36;;;;;;;;;;;4.50;99.90;;;;;;5009473;28;20021;-69
2022/01/06 05:21:04;;;;;;;;;;;4.40;99.90;;;;;;5016695;28;20439;-69
2022/01/06 05:23:29;;;;;;;;;;;4.30;99.90;;;;;;5045674;28;20290;-69
2022/01/06 05:25:56;;;;;;;;;;;4.20;99.90;;;;;;5016913;28;19913;-69
2022/01/06 05:28:22;;;;;;;;;;;4.30;99.90;;;;;;5023403;28;19913;-77
2022/01/06 05:30:47;;;;;;;;;;;4.30;99.90;;;;;;5024848;28;19913;-74
2022/01/06 05:33:13;;;;;;;;;;;4.20;99.90;;;;;;5029854;28;20355;-69
2022/01/06 05:35:38;;;;;;;;;;;4.20;99.90;;;;;;5038051;28;19917;-68
2022/01/06 05:38:04;;;;;;;;;;;4.10;99.90;;;;;;5027203;28;20235;-72
2022/01/06 05:40:29;;;;;;;;;;;4.10;99.90;;;;;;5025102;28;19967;-68
2022/01/06 05:42:56;;;;;;;;;;;4.10;99.90;;;;;;5027099;28;19920;-67
2022/01/06 05:45:22;;;;;;;;;;;4.00;99.90;;;;;;5014845;28;20220;-67
2022/01/06 05:47:48;;;;;;;;;;;3.90;99.90;;;;;;5014098;28;20301;-67
2022/01/06 05:50:13;;;;;;;;;;;3.80;99.90;;;;;;5029795;28;19919;-68
2022/01/06 05:52:39;;;;;;;;;;;3.60;99.90;;;;;;5033882;28;19913;-70
2022/01/06 05:55:04;;;;;;;;;;;3.50;99.90;;;;;;5027346;28;19913;-69
2022/01/06 05:57:30;;;;;;;;;;;3.50;99.90;;;;;;5038519;28;19966;-68
2022/01/06 05:59:55;;;;;;;;;;;3.50;99.90;;;;;;5044235;28;19964;-69
2022/01/06 06:02:21;;;;;;;;;;;3.30;99.90;;;;;;5017416;28;20345;-71
2022/01/06 06:04:47;;;;;;;;;;;3.20;99.90;;;;;;5007340;28;20351;-70
2022/01/06 06:07:12;;;;;;;;;;;3.20;99.90;;;;;;5006122;28;19914;-68
2022/01/06 06:09:38;;;;;;;;;;;3.20;99.90;;;;;;5021570;28;19983;-69
2022/01/06 06:12:03;;;;;;;;;;;3.20;99.90;;;;;;5020143;28;19921;-70
2022/01/06 06:14:29;;;;;;;;;;;3.10;99.90;;;;;;5001167;28;19963;-70
2022/01/06 06:16:54;;;;;;;;;;;3.00;99.90;;;;;;5008678;28;19920;-70
2022/01/06 06:19:20;;;;;;;;;;;3.00;99.90;;;;;;5017219;28;20434;-68
2022/01/06 06:21:45;;;;;;;;;;;3.00;99.90;;;;;;5040565;28;19917;-69
2022/01/06 06:24:11;;;;;;;;;;;2.90;99.90;;;;;;5033636;28;19928;-69
2022/01/06 06:26:36;;;;;;;;;;;2.90;99.90;;;;;;5027291;28;19963;-70
2022/01/06 06:29:02;;;;;;;;;;;2.80;99.90;;;;;;5030143;28;20397;-72
2022/01/06 06:31:27;;;;;;;;;;;2.80;99.90;;;;;;5019326;28;19917;-71
2022/01/06 06:33:53;;;;;;;;;;;2.80;99.90;;;;;;5015611;28;19973;-68
2022/01/06 06:36:18;;;;;;;;;;;2.90;99.90;;;;;;4993201;28;20387;-72
2022/01/06 06:38:44;;;;;;;;;;;2.70;99.90;;;;;;5022394;28;19916;-68
2022/01/06 06:41:09;;;;;;;;;;;2.70;99.90;;;;;;5016866;28;20839;-69
2022/01/06 06:43:35;;;;;;;;;;;2.50;99.90;;;;;;5004373;28;19924;-69
2022/01/06 06:46:00;;;;;;;;;;;2.50;99.90;;;;;;5019144;28;19909;-68
2022/01/06 06:48:26;;;;;;;;;;;2.60;99.90;;;;;;5022062;28;19920;-71
2022/01/06 06:50:52;;;;;;;;;;;2.60;99.90;;;;;;5016077;28;19913;-68
2022/01/06 06:53:17;;;;;;;;;;;2.50;99.90;;;;;;5005347;28;20359;-68
2022/01/06 06:55:43;;;;;;;;;;;2.50;99.90;;;;;;5011298;28;19912;-69
2022/01/06 06:58:08;;;;;;;;;;;2.50;99.90;;;;;;4997007;28;20039;-68
2022/01/06 07:00:34;;;;;;;;;;;2.40;99.90;;;;;;5017966;28;20428;-69
2022/01/06 07:02:59;;;;;;;;;;;2.40;99.90;;;;;;5042015;28;19962;-71
2022/01/06 07:05:25;;;;;;;;;;;2.40;99.90;;;;;;5048918;28;19915;-70
2022/01/06 07:07:51;;;;;;;;;;;2.40;99.90;;;;;;5044531;28;19913;-70
2022/01/06 07:10:16;;;;;;;;;;;2.40;99.90;;;;;;5032880;28;19924;-71
2022/01/06 07:12:43;;;;;;;;;;;2.30;99.90;;;;;;5029873;28;19960;-70
2022/01/06 07:15:10;;;;;;;;;;;2.30;99.90;;;;;;5037399;28;19945;-70
2022/01/06 07:17:35;;;;;;;;;;;2.30;99.90;;;;;;5031699;28;20285;-69
2022/01/06 07:20:01;;;;;;;;;;;2.40;99.90;;;;;;5038127;28;19936;-70
2022/01/06 07:22:26;;;;;;;;;;;2.40;99.90;;;;;;5039156;28;20378;-70
2022/01/06 07:24:52;;;;;;;;;;;2.20;99.90;;;;;;5048491;28;19916;-70
2022/01/06 07:27:17;;;;;;;;;;;2.30;99.90;;;;;;5044710;28;19909;-69
2022/01/06 07:29:43;;;;;;;;;;;2.30;99.90;;;;;;5043414;28;19963;-70
2022/01/06 07:32:08;;;;;;;;;;;2.40;99.90;;;;;;5040594;28;19932;-69
2022/01/06 07:34:34;;;;;;;;;;;2.40;99.90;;;;;;5016323;28;19909;-69
2022/01/06 07:36:59;;;;;;;;;;;2.40;99.90;;;;;;5013478;28;20002;-69
2022/01/06 07:39:25;;;;;;;;;;;2.40;99.90;;;;;;5041124;28;20018;-69
2022/01/06 07:41:51;;;;;;;;;;;2.30;99.90;;;;;;5029181;28;19913;-67
2022/01/06 07:44:16;;;;;;;;;;;2.30;99.90;;;;;;5030113;28;20099;-70
2022/01/06 07:46:44;;;;;;;;;;;2.30;99.90;;;;;;5012366;28;20248;-70
2022/01/06 07:49:10;;;;;;;;;;;2.20;99.90;;;;;;5028299;28;19955;-70
2022/01/06 07:51:35;;;;;;;;;;;2.20;99.90;;;;;;5029432;28;19913;-70
2022/01/06 07:54:01;;;;;;;;;;;2.10;99.90;;;;;;5031660;28;20298;-69
2022/01/06 07:56:26;;;;;;;;;;;2.20;99.90;;;;;;5030991;28;20003;-70
2022/01/06 07:58:52;;;;;;;;;;;2.10;99.90;;;;;;5029632;28;19915;-68
2022/01/06 08:01:18;;;;;;;;;;;2.20;99.90;;;;;;5029015;28;19937;-70
2022/01/06 08:03:43;;;;;;;;;;;2.30;99.90;;;;;;5028637;28;19912;-70
2022/01/06 08:06:10;;;;;;;;;;;2.20;99.90;;;;;;5028569;28;19913;-69
2022/01/06 08:08:35;;;;;;;;;;;2.20;99.90;;;;;;5026732;28;20036;-70
2022/01/06 08:11:01;;;;;;;;;;;2.30;99.90;;;;;;5028796;28;20055;-70
2022/01/06 08:13:26;;;;;;;;;;;2.30;99.90;;;;;;5028375;28;20035;-69
2022/01/06 08:15:52;;;;;;;;;;;2.40;99.90;;;;;;5028559;28;20188;-69
2022/01/06 08:18:17;;;;;;;;;;;2.40;99.90;;;;;;5028334;28;19909;-71
2022/01/06 08:20:43;;;;;;;;;;;2.40;99.90;;;;;;5028318;28;20235;-70
2022/01/06 08:23:08;;;;;;;;;;;2.50;99.90;;;;;;5028031;28;20065;-67
2022/01/06 08:25:34;;;;;;;;;;;2.40;99.90;;;;;;5028535;28;19920;-70
2022/01/06 08:28:00;;;;;;;;;;;2.50;99.90;;;;;;5028041;28;19916;-69
2022/01/06 08:30:26;;;;;;;;;;;2.50;99.90;;;;;;5027894;28;19917;-68
2022/01/06 08:32:52;;;;;;;;;;;2.60;99.90;;;;;;5027858;28;19967;-71
2022/01/06 08:35:18;;;;;;;;;;;2.70;99.90;;;;;;5028203;28;19913;-69
2022/01/06 08:37:43;;;;;;;;;;;2.70;99.90;;;;;;5028011;28;19915;-68
2022/01/06 08:40:09;;;;;;;;;;;2.70;99.90;;;;;;5027352;28;20314;-68
2022/01/06 08:42:35;;;;;;;;;;;2.80;99.90;;;;;;5010121;28;19948;-68
2022/01/06 08:45:01;;;;;;;;;;;2.90;99.90;;;;;;5029073;28;20008;-69
2022/01/06 08:47:29;;;;;;;;;;;3.00;99.90;;;;;;5010171;28;19909;-69
2022/01/06 08:49:54;;;;;;;;;;;3.00;99.90;;;;;;5027632;28;19913;-70
2022/01/06 08:52:19;;;;;;;;;;;3.10;99.90;;;;;;5028138;28;20367;-68
2022/01/06 08:54:45;;;;;;;;;;;3.10;99.90;;;;;;5028055;28;20030;-70
2022/01/06 08:57:10;;;;;;;;;;;3.10;99.90;;;;;;5027595;28;19940;-67
2022/01/06 08:59:36;;;;;;;;;;;3.20;99.90;;;;;;5026515;28;20559;-69
2022/01/06 09:02:02;;;;;;;;;;;3.30;99.90;;;;;;5027611;28;20359;-69
2022/01/06 09:04:27;;;;;;;;;;;3.40;99.90;;;;;;5026818;28;20580;-70
2022/01/06 09:06:53;;;;;;;;;;;3.50;99.90;;;;;;5026113;28;19913;-70
2022/01/06 09:09:19;;;;;;;;;;;3.60;99.90;;;;;;5027997;28;19913;-68
2022/01/06 09:11:45;;;;;;;;;;;3.60;99.90;;;;;;5011114;28;19967;-68
2022/01/06 09:14:10;;;;;;;;;;;3.60;99.90;;;;;;5028087;28;20004;-71
2022/01/06 09:16:36;;;;;;;;;;;3.60;99.90;;;;;;5026105;28;19910;-69
2022/01/06 09:19:02;;;;;;;;;;;3.70;99.90;;;;;;5026451;28;19909;-70
2022/01/06 09:21:28;;;;;;;;;;;3.70;99.90;;;;;;5028618;28;19967;-67
2022/01/06 09:23:54;;;;;;;;;;;3.80;99.90;;;;;;5009290;28;19917;-72
2022/01/06 09:26:20;;;;;;;;;;;3.90;99.90;;;;;;5026415;28;19909;-67
2022/01/06 09:28:46;;;;;;;;;;;3.90;99.90;;;;;;5007508;28;19925;-70
2022/01/06 09:31:11;;;;;;;;;;;3.90;99.90;;;;;;5025262;28;19909;-75
2022/01/06 09:33:37;;;;;;;;;;;4.00;99.90;;;;;;5025461;28;20031;-71
2022/01/06 09:36:02;;;;;;;;;;;4.10;99.90;;;;;;5007675;28;19909;-70
2022/01/06 09:38:28;;;;;;;;;;;4.20;99.90;;;;;;5025816;28;19917;-67
2022/01/06 09:40:53;;;;;;;;;;;4.30;99.90;;;;;;5024849;28;20536;-69
2022/01/06 09:43:25;;;;;;;;;;;4.30;99.90;;;;;;5025892;28;19973;-70
2022/01/06 09:45:51;;;;;;;;;;;4.40;99.90;;;;;;5025630;28;19912;-68
2022/01/06 09:48:19;;;;;;;;;;;4.40;99.90;;;;;;5025928;28;19920;-68
2022/01/06 09:50:45;;;;;;;;;;;4.50;99.90;;;;;;5026041;28;20259;-70
2022/01/06 09:53:11;;;;;;;;;;;4.60;99.90;;;;;;5009088;28;19913;-68
2022/01/06 09:55:40;;;;;;;;;;;4.70;99.90;;;;;;5029269;28;19916;-69
2022/01/06 09:58:06;;;;;;;;;;;4.70;99.90;;;;;;5028350;28;19932;-69
2022/01/06 10:00:33;;;;;;;;;;;4.90;99.90;;;;;;5039343;28;20214;-67
2022/01/06 10:03:01;;;;;;;;;;;4.90;99.90;;;;;;5037364;28;19914;-69
2022/01/06 10:05:36;;;;;;;;;;;5.00;99.90;;;;;;5026772;28;19913;-68
2022/01/06 10:08:01;;;;;;;;;;;5.10;99.90;;;;;;5026510;28;19909;-72
2022/01/06 10:10:27;;;;;;;;;;;5.20;99.90;;;;;;5031791;28;20013;-72
2022/01/06 10:12:57;;;;;;;;;;;5.30;99.90;;;;;;5029986;28;20367;-68
2022/01/06 10:15:24;;;;;;;;;;;5.30;99.90;;;;;;5029672;28;20048;-68
2022/01/06 10:17:49;;;;;;;;;;;5.40;99.90;;;;;;5030306;28;20157;-70
2022/01/06 10:20:16;;;;;;;;;;;5.40;99.90;;;;;;5011648;28;19909;-73
2022/01/06 10:22:43;;;;;;;;;;;5.40;99.90;;;;;;5029104;28;19909;-67
2022/01/06 10:25:08;;;;;;;;;;;5.40;99.90;;;;;;5010077;28;19953;-75
2022/01/06 10:27:34;;;;;;;;;;;5.40;99.90;;;;;;5027198;28;20386;-71
2022/01/06 10:30:05;;;;;;;;;;;5.50;99.90;;;;;;5041990;28;19927;-69
2022/01/06 10:32:31;;;;;;;;;;;5.50;99.90;;;;;;5026996;28;20341;-70
2022/01/06 10:35:02;;;;;;;;;;;5.40;99.90;;;;;;5032958;28;19987;-71
2022/01/06 10:37:35;;;;;;;;;;;5.40;99.90;;;;;;5032622;28;19913;-70
2022/01/06 10:40:07;;;;;;;;;;;5.60;99.90;;;;;;5030821;28;20370;-71
2022/01/06 10:42:34;;;;;;;;;;;5.60;99.90;;;;;;5045214;28;20315;-70
2022/01/06 10:45:08;;;;;;;;;;;5.60;99.90;;;;;;5043225;28;19948;-75
2022/01/06 10:47:36;;;;;;;;;;;5.60;99.90;;;;;;5029967;28;19909;-70
2022/01/06 10:50:20;;;;;;;;;;;5.50;99.90;;;;;;5029321;28;19920;-68
2022/01/06 10:52:47;;;;;;;;;;;5.40;99.90;;;;;;5029242;28;19909;-70
2022/01/06 10:55:17;;;;;;;;;;;5.40;99.90;;;;;;5029293;28;19917;-69
2022/01/06 10:58:04;;;;;;;;;;;5.40;99.90;;;;;;5032020;28;19932;-68
2022/01/06 11:00:31;;;;;;;;;;;5.50;99.90;;;;;;5019155;28;19913;-68
2022/01/06 11:03:04;;;;;;;;;;;5.60;99.90;;;;;;5044222;28;19909;-70
2022/01/06 11:05:30;;;;;;;;;;;5.60;99.90;;;;;;5044155;28;19964;-68
2022/01/06 11:07:55;;;;;;;;;;;5.60;99.90;;;;;;5043288;28;19916;-71
2022/01/06 11:10:22;;;;;;;;;;;5.60;99.90;;;;;;5032695;28;19971;-69
2022/01/06 11:12:50;;;;;;;;;;;5.60;99.90;;;;;;5045611;28;19921;-68
2022/01/06 11:15:15;;;;;;;;;;;5.70;99.90;;;;;;5014784;28;20004;-70
2022/01/06 11:17:45;;;;;;;;;;;5.70;99.90;;;;;;5044605;28;19909;-69
2022/01/06 11:20:11;;;;;;;;;;;5.70;99.90;;;;;;5043412;28;19909;-68
2022/01/06 11:22:47;;;;;;;;;;;5.70;99.90;;;;;;5032219;28;19910;-69
2022/01/06 11:25:12;;;;;;;;;;;5.70;99.90;;;;;;5029603;28;19917;-68
2022/01/06 11:27:38;;;;;;;;;;;5.70;99.90;;;;;;5030196;28;19910;-67
2022/01/06 11:30:11;;;;;;;;;;;5.70;99.90;;;;;;5030530;28;19917;-69
2022/01/06 11:32:37;;;;;;;;;;;5.70;99.90;;;;;;5012640;28;20032;-68
2022/01/06 11:35:11;;;;;;;;;;;5.70;99.90;;;;;;5012081;28;20422;-70
2022/01/06 11:37:39;;;;;;;;;;;5.70;99.90;;;;;;5030178;28;20046;-69
2022/01/06 11:40:05;;;;;;;;;;;5.70;99.90;;;;;;5029839;28;19916;-69
2022/01/06 11:42:31;;;;;;;;;;;5.70;99.90;;;;;;5029741;28;19909;-73
2022/01/06 11:44:58;;;;;;;;;;;5.70;99.90;;;;;;5030190;28;20108;-68
2022/01/06 11:47:34;;;;;;;;;;;5.80;99.90;;;;;;5030072;28;19920;-74
2022/01/06 11:50:06;;;;;;;;;;;5.90;99.90;;;;;;5028931;28;19913;-70
2022/01/06 11:52:31;;;;;;;;;;;5.90;99.90;;;;;;5029029;28;20058;-71
2022/01/06 11:54:57;;;;;;;;;;;5.90;99.90;;;;;;5028208;28;20017;-71
2022/01/06 11:57:28;;;;;;;;;;;5.90;99.90;;;;;;5026955;28;20015;-73
2022/01/06 11:59:54;;;;;;;;;;;6.00;99.90;;;;;;5029054;28;19913;-71
2022/01/06 12:02:20;;;;;;;;;;;6.00;99.90;;;;;;5027419;28;19928;-69
2022/01/06 12:04:53;;;;;;;;;;;6.10;99.90;;;;;;5028410;28;20390;-69
2022/01/06 12:07:19;;;;;;;;;;;6.20;99.90;;;;;;5028305;28;19963;-72
2022/01/06 12:09:54;;;;;;;;;;;6.10;99.90;;;;;;5028133;28;20297;-69
2022/01/06 12:12:20;;;;;;;;;;;6.30;99.90;;;;;;5028332;28;19940;-71
2022/01/06 12:14:45;;;;;;;;;;;6.30;99.90;;;;;;5027873;28;20237;-72
2022/01/06 12:17:11;;;;;;;;;;;6.40;99.90;;;;;;5028128;28;19983;-70
2022/01/06 12:19:38;;;;;;;;;;;6.30;99.90;;;;;;5027395;28;20088;-70
2022/01/06 12:22:09;;;;;;;;;;;6.40;99.90;;;;;;5009572;28;19971;-69
2022/01/06 12:24:34;;;;;;;;;;;6.50;99.90;;;;;;5027905;28;19916;-70
2022/01/06 12:27:06;;;;;;;;;;;6.50;99.90;;;;;;5027484;28;19920;-69
2022/01/06 12:29:38;;;;;;;;;;;6.50;99.90;;;;;;5027337;28;20333;-71
2022/01/06 12:32:06;;;;;;;;;;;6.40;99.90;;;;;;5009400;28;19917;-70
2022/01/06 12:34:31;;;;;;;;;;;6.40;99.90;;;;;;5027871;28;19951;-69
2022/01/06 12:36:57;;;;;;;;;;;6.40;99.90;;;;;;5027344;28;19945;-70
2022/01/06 12:39:22;;;;;;;;;;;6.60;99.90;;;;;;5009684;28;20125;-74
2022/01/06 12:41:49;;;;;;;;;;;6.70;99.90;;;;;;5040470;28;19920;-72
2022/01/06 12:44:18;;;;;;;;;;;6.80;99.90;;;;;;5035114;28;19913;-72
2022/01/06 12:46:43;;;;;;;;;;;7.10;99.90;;;;;;5028075;28;19913;-70
2022/01/06 12:49:10;;;;;;;;;;;6.90;99.90;;;;;;5026393;28;19913;-69
2022/01/06 12:51:40;;;;;;;;;;;6.80;99.90;;;;;;5026430;28;20000;-70
2022/01/06 12:54:11;;;;;;;;;;;6.60;99.90;;;;;;5026176;28;19967;-70
2022/01/06 12:56:37;;;;;;;;;;;6.40;99.90;;;;;;5008298;28;19909;-69
2022/01/06 12:59:08;;;;;;;;;;;6.30;99.90;;;;;;5029472;28;19931;-68
2022/01/06 13:01:33;;;;;;;;;;;6.30;99.90;;;;;;5034418;28;20387;-69
2022/01/06 13:04:00;;;;;;;;;;;6.30;99.90;;;;;;5029587;28;20430;-68
2022/01/06 13:06:28;;;;;;;;;;;6.30;99.90;;;;;;5012454;28;19936;-69
2022/01/06 13:08:56;;;;;;;;;;;6.40;99.90;;;;;;5021902;28;20125;-69
2022/01/06 13:11:22;;;;;;;;;;;6.40;99.90;;;;;;5035622;28;19980;-68
2022/01/06 13:13:48;;;;;;;;;;;6.50;99.90;;;;;;5036556;28;19931;-70
2022/01/06 13:16:35;;;;;;;;;;;6.60;99.90;;;;;;5047889;28;19956;-69
2022/01/06 13:19:12;;;;;;;;;;;6.50;99.90;;;;;;5038908;28;19975;-72
2022/01/06 13:21:45;;;;;;;;;;;6.60;99.90;;;;;;5039646;28;19936;-77
2022/01/06 13:24:18;;;;;;;;;;;6.60;99.90;;;;;;5018870;28;20348;-67
2022/01/06 13:26:48;;;;;;;;;;;6.70;99.90;;;;;;5011669;28;19913;-69
2022/01/06 13:29:43;;;;;;;;;;;7.10;99.90;;;;;;5027908;28;19924;-69
2022/01/06 13:32:14;;;;;;;;;;;7.40;99.90;;;;;;5002100;28;19996;-68
2022/01/06 13:34:44;;;;;;;;;;;7.60;99.90;;;;;;5025451;28;20004;-70
2022/01/06 13:37:19;;;;;;;;;;;7.40;99.90;;;;;;5025129;28;20441;-70
2022/01/06 13:39:46;;;;;;;;;;;7.10;99.90;;;;;;5026447;28;19909;-69
2022/01/06 13:42:28;;;;;;;;;;;7.00;99.90;;;;;;5025956;28;20008;-70
2022/01/06 13:44:59;;;;;;;;;;;6.80;99.90;;;;;;5008877;28;19916;-71
2022/01/06 13:47:36;;;;;;;;;;;6.80;99.90;;;;;;5026149;28;20359;-68
2022/01/06 13:52:53;;;;;;;;;;;6.60;99.90;;;;;;4993310;28;20036;-71
2022/01/06 13:55:19;;;;;;;;;;;6.50;99.90;;;;;;5025321;28;20353;-69
2022/01/06 13:57:44;;;;;;;;;;;6.40;99.90;;;;;;5026044;28;20342;-72
2022/01/06 14:00:10;;;;;;;;;;;6.30;99.90;;;;;;5025033;28;19916;-70
2022/01/06 14:02:37;;;;;;;;;;;6.30;99.90;;;;;;5024734;28;20398;-71
2022/01/06 14:05:08;;;;;;;;;;;6.30;99.90;;;;;;5025682;28;19963;-68
2022/01/06 14:07:34;;;;;;;;;;;6.30;99.90;;;;;;5031186;28;19909;-70
2022/01/06 14:10:01;;;;;;;;;;;6.30;99.90;;;;;;5030776;28;19996;-70
2022/01/06 14:12:27;;;;;;;;;;;6.30;99.90;;;;;;5032497;28;20018;-74
2022/01/06 14:14:52;;;;;;;;;;;6.30;99.90;;;;;;5031210;28;20421;-71
2022/01/06 14:17:17;;;;;;;;;;;6.30;99.90;;;;;;5030982;28;19909;-70
2022/01/06 14:19:43;;;;;;;;;;;6.20;99.90;;;;;;5012213;28;19917;-70
2022/01/06 14:22:08;;;;;;;;;;;6.30;99.90;;;;;;5030916;28;19913;-68
2022/01/06 14:24:35;;;;;;;;;;;6.30;99.90;;;;;;5032118;28;19917;-69
2022/01/06 14:27:02;;;;;;;;;;;6.30;99.90;;;;;;5013690;28;20038;-69
2022/01/06 14:29:28;;;;;;;;;;;6.40;99.90;;;;;;5030617;28;19917;-71
2022/01/06 14:31:54;;;;;;;;;;;6.50;99.90;;;;;;5028919;28;20572;-69
2022/01/06 14:34:19;;;;;;;;;;;6.50;99.90;;;;;;5030056;28;19914;-69
2022/01/06 14:36:45;;;;;;;;;;;6.40;99.90;;;;;;5029342;28;20395;-69